createdAt,value
2018-09-02T00:02:18.509Z,23.10
2018-09-02T00:04:47.206Z,23.10
2018-09-02T00:07:15.479Z,23.10
2018-09-02T00:09:43.749Z,23.10
2018-09-02T00:12:13.354Z,23.10
2018-09-02T00:14:41.598Z,23.10
2018-09-02T00:17:09.842Z,23.10
2018-09-02T00:19:38.590Z,23.10
2018-09-02T00:22:06.827Z,23.10
2018-09-02T00:24:35.083Z,23.10
2018-09-02T00:27:03.843Z,23.10
2018-09-02T00:29:32.114Z,23.10
2018-09-02T00:32:00.345Z,23.10
2018-09-02T00:34:28.871Z,23.10
2018-09-02T00:36:57.162Z,23.10
2018-09-02T00:39:25.402Z,23.00
2018-09-02T00:41:54.106Z,23.00
2018-09-02T00:44:22.415Z,23.00
2018-09-02T00:46:50.642Z,23.00
2018-09-02T00:49:19.352Z,23.00
2018-09-02T00:51:47.582Z,23.00
2018-09-02T00:54:15.894Z,23.00
2018-09-02T00:56:44.492Z,23.00
2018-09-02T00:59:12.746Z,23.00
2018-09-02T01:01:40.969Z,23.00
2018-09-02T01:04:09.532Z,23.00
2018-09-02T01:06:37.782Z,23.00
2018-09-02T01:09:06.677Z,23.00
2018-09-02T01:11:35.282Z,23.00
2018-09-02T01:14:04.346Z,23.00
2018-09-02T01:16:32.572Z,23.00
2018-09-02T01:19:01.438Z,23.00
2018-09-02T01:21:29.822Z,23.00
2018-09-02T01:23:58.221Z,22.90
2018-09-02T01:26:26.785Z,22.90
2018-09-02T01:28:55.091Z,23.00
2018-09-02T01:31:23.410Z,22.90
2018-09-02T01:33:52.123Z,22.90
2018-09-02T01:36:20.338Z,22.90
2018-09-02T01:38:48.578Z,22.90
2018-09-02T01:41:17.058Z,22.90
2018-09-02T01:43:45.485Z,22.90
2018-09-02T01:46:13.722Z,22.90
2018-09-02T01:48:42.407Z,22.90
2018-09-02T01:51:10.670Z,22.90
2018-09-02T01:53:39.924Z,22.90
2018-09-02T01:56:11.098Z,22.90
2018-09-02T01:58:39.330Z,22.90
2018-09-02T02:01:07.694Z,22.90
2018-09-02T02:03:37.682Z,22.90
2018-09-02T02:06:05.943Z,22.90
2018-09-02T02:08:34.267Z,22.80
2018-09-02T02:11:02.547Z,22.90
2018-09-02T02:13:30.778Z,22.80
2018-09-02T02:15:59.079Z,22.80
2018-09-02T02:18:27.753Z,22.80
2018-09-02T02:20:56.074Z,22.80
2018-09-02T02:23:24.315Z,22.80
2018-09-02T02:25:53.317Z,22.80
2018-09-02T02:28:21.553Z,22.80
2018-09-02T02:30:49.878Z,22.80
2018-09-02T02:33:18.445Z,22.80
2018-09-02T02:35:46.697Z,22.80
2018-09-02T02:38:14.978Z,22.80
2018-09-02T02:40:43.890Z,22.80
2018-09-02T02:43:12.197Z,22.80
2018-09-02T02:45:40.418Z,22.80
2018-09-02T02:48:10.466Z,22.80
2018-09-02T02:50:38.703Z,22.80
2018-09-02T02:53:06.938Z,22.80
2018-09-02T02:55:35.927Z,22.80
2018-09-02T02:58:04.242Z,22.80
2018-09-02T03:00:33.023Z,22.80
2018-09-02T03:03:01.421Z,22.80
2018-09-02T03:05:30.078Z,22.70
2018-09-02T03:07:58.410Z,22.80
2018-09-02T03:10:27.611Z,22.80
2018-09-02T03:12:55.857Z,22.70
2018-09-02T03:15:24.097Z,22.80
2018-09-02T03:17:52.648Z,22.70
2018-09-02T03:20:20.907Z,22.80
2018-09-02T03:22:49.163Z,22.70
2018-09-02T03:25:17.542Z,22.70
2018-09-02T03:27:45.773Z,22.70
2018-09-02T03:30:14.017Z,22.70
2018-09-02T03:32:42.518Z,22.70
2018-09-02T03:35:10.748Z,22.70
2018-09-02T03:37:39.061Z,22.70
2018-09-02T03:40:07.655Z,22.70
2018-09-02T03:42:35.916Z,22.70
2018-09-02T03:45:04.161Z,22.70
2018-09-02T03:47:32.478Z,22.70
2018-09-02T03:50:00.730Z,22.70
2018-09-02T03:52:28.962Z,22.70
2018-09-02T03:54:57.721Z,22.70
2018-09-02T03:57:25.966Z,22.70
2018-09-02T03:59:54.222Z,22.70
2018-09-02T04:02:22.755Z,22.70
2018-09-02T04:04:51.107Z,22.70
2018-09-02T04:07:19.941Z,22.70
2018-09-02T04:09:48.206Z,22.70
2018-09-02T04:12:16.626Z,22.60
2018-09-02T04:14:45.579Z,22.70
2018-09-02T04:17:13.820Z,22.60
2018-09-02T04:19:42.296Z,22.70
2018-09-02T04:22:10.816Z,22.60
2018-09-02T04:24:39.065Z,22.60
2018-09-02T04:27:07.323Z,22.60
2018-09-02T04:29:36.060Z,22.60
2018-09-02T04:32:04.447Z,22.60
2018-09-02T04:34:32.779Z,22.60
2018-09-02T04:37:01.298Z,22.60
2018-09-02T04:39:29.541Z,22.60
2018-09-02T04:41:57.788Z,22.60
2018-09-02T04:44:26.542Z,22.60
2018-09-02T04:46:54.773Z,22.60
2018-09-02T04:49:23.006Z,22.60
2018-09-02T04:51:51.454Z,22.60
2018-09-02T04:54:19.755Z,22.60
2018-09-02T04:56:48.025Z,22.60
2018-09-02T04:59:16.927Z,22.60
2018-09-02T05:01:45.179Z,22.60
2018-09-02T05:04:13.855Z,22.60
2018-09-02T05:06:42.859Z,22.60
2018-09-02T05:09:11.263Z,22.60
2018-09-02T05:11:39.598Z,22.60
2018-09-02T05:14:08.174Z,22.60
2018-09-02T05:16:36.354Z,22.60
2018-09-02T05:19:06.093Z,22.60
2018-09-02T05:21:34.410Z,22.60
2018-09-02T05:24:02.655Z,22.60
2018-09-02T05:26:30.886Z,22.60
2018-09-02T05:28:59.401Z,22.60
2018-09-02T05:31:27.641Z,22.60
2018-09-02T05:33:55.883Z,22.60
2018-09-02T05:36:24.709Z,22.50
2018-09-02T05:38:52.938Z,22.50
2018-09-02T05:41:21.177Z,22.50
2018-09-02T05:43:50.047Z,22.50
2018-09-02T05:46:19.277Z,22.60
2018-09-02T05:48:47.587Z,22.50
2018-09-02T05:51:15.850Z,22.50
2018-09-02T05:53:44.156Z,22.50
2018-09-02T05:56:12.474Z,22.50
2018-09-02T05:58:41.808Z,22.50
2018-09-02T06:01:10.052Z,22.50
2018-09-02T06:03:38.366Z,22.50
2018-09-02T06:06:06.712Z,22.50
2018-09-02T06:08:34.958Z,22.50
2018-09-02T06:11:03.212Z,22.50
2018-09-02T06:13:31.715Z,22.50
2018-09-02T06:15:59.945Z,22.50
2018-09-02T06:18:28.206Z,22.50
2018-09-02T06:20:58.344Z,22.50
2018-09-02T06:23:26.653Z,22.50
2018-09-02T06:25:54.994Z,22.50
2018-09-02T06:28:23.578Z,22.50
2018-09-02T06:30:51.931Z,22.50
2018-09-02T06:33:20.182Z,22.50
2018-09-02T06:35:48.722Z,22.50
2018-09-02T06:38:17.030Z,22.40
2018-09-02T06:40:45.258Z,22.50
2018-09-02T06:43:13.621Z,22.50
2018-09-02T06:45:41.940Z,22.50
2018-09-02T06:48:10.125Z,22.40
2018-09-02T06:50:38.474Z,22.40
2018-09-02T06:53:06.702Z,22.50
2018-09-02T06:55:34.937Z,22.50
2018-09-02T06:58:03.935Z,22.40
2018-09-02T07:00:32.264Z,22.40
2018-09-02T07:03:00.511Z,22.50
2018-09-02T07:05:29.261Z,22.40
2018-09-02T07:07:57.517Z,22.40
2018-09-02T07:10:25.738Z,22.40
2018-09-02T07:12:54.610Z,22.40
2018-09-02T07:15:22.862Z,22.40
2018-09-02T07:17:51.125Z,22.40
2018-09-02T07:20:19.755Z,22.40
2018-09-02T07:22:48.986Z,22.40
2018-09-02T07:25:17.373Z,22.40
2018-09-02T07:27:46.085Z,22.40
2018-09-02T07:30:14.570Z,22.40
2018-09-02T07:32:43.226Z,22.50
2018-09-02T07:35:11.774Z,22.40
2018-09-02T07:37:40.002Z,22.50
2018-09-02T07:40:08.258Z,22.50
2018-09-02T07:42:37.317Z,22.50
2018-09-02T07:45:05.978Z,22.50
2018-09-02T07:47:34.341Z,22.40
2018-09-02T07:50:02.994Z,22.40
2018-09-02T07:52:31.244Z,22.40
2018-09-02T07:54:59.486Z,22.40
2018-09-02T07:57:28.210Z,22.40
2018-09-02T07:59:56.547Z,22.40
2018-09-02T08:02:24.816Z,22.40
2018-09-02T08:04:55.510Z,22.40
2018-09-02T08:07:23.737Z,22.40
2018-09-02T08:09:51.979Z,22.40
2018-09-02T08:12:20.917Z,22.50
2018-09-02T08:14:49.096Z,22.50
2018-09-02T08:17:17.336Z,22.50
2018-09-02T08:19:45.800Z,22.50
2018-09-02T08:22:14.090Z,22.50
2018-09-02T08:24:43.145Z,22.50
2018-09-02T08:27:12.246Z,22.50
2018-09-02T08:29:40.569Z,22.50
2018-09-02T08:32:08.871Z,22.50
2018-09-02T08:34:37.178Z,22.50
2018-09-02T08:37:05.439Z,22.50
2018-09-02T08:39:33.695Z,22.50
2018-09-02T08:42:02.401Z,22.50
2018-09-02T08:44:30.636Z,22.50
2018-09-02T08:46:58.903Z,22.50
2018-09-02T08:49:27.543Z,22.50
2018-09-02T08:51:55.786Z,22.50
2018-09-02T08:54:24.071Z,22.50
2018-09-02T08:56:53.015Z,22.50
2018-09-02T08:59:21.331Z,22.50
2018-09-02T09:01:49.776Z,22.50
2018-09-02T09:04:18.002Z,22.50
2018-09-02T09:06:46.248Z,22.50
2018-09-02T09:09:14.652Z,22.50
2018-09-02T09:11:43.172Z,22.50
2018-09-02T09:14:11.515Z,22.50
2018-09-02T09:16:39.801Z,22.50
2018-09-02T09:19:08.403Z,22.50
2018-09-02T09:21:36.754Z,22.50
2018-09-02T09:24:05.168Z,22.50
2018-09-02T09:26:34.259Z,22.60
2018-09-02T09:29:02.558Z,22.50
2018-09-02T09:31:30.829Z,22.50
2018-09-02T09:34:00.135Z,22.60
2018-09-02T09:36:28.386Z,22.60
2018-09-02T09:38:56.650Z,22.60
2018-09-02T09:41:24.951Z,22.60
2018-09-02T09:43:53.206Z,22.60
2018-09-02T09:46:21.458Z,22.60
2018-09-02T09:48:49.736Z,22.70
2018-09-02T09:51:18.003Z,22.70
2018-09-02T09:53:46.267Z,22.70
2018-09-02T09:56:16.046Z,22.70
2018-09-02T09:58:44.286Z,22.70
2018-09-02T10:01:12.550Z,22.70
2018-09-02T10:03:41.136Z,22.70
2018-09-02T10:06:09.338Z,22.70
2018-09-02T10:08:37.601Z,22.80
2018-09-02T10:11:06.435Z,22.80
2018-09-02T10:13:34.711Z,22.80
2018-09-02T10:16:02.982Z,22.80
2018-09-02T10:18:31.354Z,22.80
2018-09-02T10:20:59.598Z,22.80
2018-09-02T10:23:27.867Z,22.80
2018-09-02T10:25:56.604Z,22.80
2018-09-02T10:28:26.061Z,22.80
2018-09-02T10:30:54.307Z,22.80
2018-09-02T10:33:23.576Z,22.80
2018-09-02T10:35:51.818Z,22.80
2018-09-02T10:38:20.102Z,22.80
2018-09-02T10:40:48.491Z,22.80
2018-09-02T10:43:16.762Z,22.80
2018-09-02T10:45:45.024Z,22.80
2018-09-02T10:48:13.855Z,22.80
2018-09-02T10:50:42.196Z,22.80
2018-09-02T10:53:10.566Z,22.90
2018-09-02T10:55:40.287Z,22.90
2018-09-02T10:58:08.739Z,22.90
2018-09-02T11:00:37.006Z,22.80
2018-09-02T11:03:06.181Z,22.90
2018-09-02T11:05:37.022Z,22.80
2018-09-02T11:08:05.295Z,22.90
2018-09-02T11:10:33.978Z,22.90
2018-09-02T11:13:02.353Z,22.90
2018-09-02T11:15:30.702Z,22.90
2018-09-02T11:17:59.843Z,22.90
2018-09-02T11:20:28.114Z,22.80
2018-09-02T11:22:56.496Z,22.90
2018-09-02T11:25:25.491Z,22.90
2018-09-02T11:27:53.743Z,22.90
2018-09-02T11:30:22.042Z,22.90
2018-09-02T11:32:50.634Z,22.90
2018-09-02T11:35:18.903Z,22.90
2018-09-02T11:37:47.258Z,22.90
2018-09-02T11:40:15.756Z,22.90
2018-09-02T11:42:43.999Z,22.90
2018-09-02T11:45:12.317Z,22.90
2018-09-02T11:47:42.941Z,22.90
2018-09-02T11:50:11.211Z,22.90
2018-09-02T11:52:39.620Z,22.90
2018-09-02T11:55:08.632Z,22.90
2018-09-02T11:57:36.910Z,22.90
2018-09-02T12:00:05.204Z,22.90
2018-09-02T12:02:34.242Z,22.90
2018-09-02T12:05:02.595Z,22.90
2018-09-02T12:07:32.251Z,22.90
2018-09-02T12:10:00.687Z,22.90
2018-09-02T12:12:28.940Z,22.90
2018-09-02T12:14:57.271Z,22.90
2018-09-02T12:17:25.461Z,23.00
2018-09-02T12:19:53.799Z,23.00
2018-09-02T12:22:22.059Z,23.00
2018-09-02T12:24:51.402Z,23.00
2018-09-02T12:27:19.633Z,23.00
2018-09-02T12:29:47.896Z,23.00
2018-09-02T12:32:16.565Z,23.00
2018-09-02T12:34:44.794Z,23.00
2018-09-02T12:37:13.126Z,23.00
2018-09-02T12:39:41.485Z,23.00
2018-09-02T12:42:09.851Z,23.00
2018-09-02T12:44:38.587Z,23.00
2018-09-02T12:47:07.218Z,23.00
2018-09-02T12:49:35.462Z,23.00
2018-09-02T12:52:03.710Z,23.00
2018-09-02T12:54:32.035Z,23.00
2018-09-02T12:57:00.323Z,23.00
2018-09-02T12:59:28.579Z,22.90
2018-09-02T13:01:57.191Z,22.90
2018-09-02T13:04:25.464Z,22.90
2018-09-02T13:06:53.722Z,23.00
2018-09-02T13:09:23.366Z,23.00
2018-09-02T13:11:51.627Z,22.90
2018-09-02T13:14:19.910Z,22.90
2018-09-02T13:16:48.639Z,22.90
2018-09-02T13:19:16.894Z,22.90
2018-09-02T13:21:45.209Z,22.90
2018-09-02T13:24:13.758Z,23.00
2018-09-02T13:26:42.113Z,23.00
2018-09-02T13:29:10.397Z,23.00
2018-09-02T13:31:39.403Z,23.00
2018-09-02T13:34:07.657Z,23.00
2018-09-02T13:36:35.944Z,23.00
2018-09-02T13:39:06.130Z,23.00
2018-09-02T13:41:34.472Z,23.00
2018-09-02T13:44:02.743Z,23.00
2018-09-02T13:46:31.295Z,23.00
2018-09-02T13:48:59.685Z,23.00
2018-09-02T13:51:28.172Z,23.00
2018-09-02T13:53:56.984Z,23.00
2018-09-02T13:56:25.330Z,23.00
2018-09-02T13:58:53.610Z,23.00
2018-09-02T14:01:21.995Z,23.00
2018-09-02T14:03:52.194Z,23.00
2018-09-02T14:06:20.470Z,23.00
2018-09-02T14:08:48.859Z,23.00
2018-09-02T14:11:17.120Z,23.10
2018-09-02T14:13:45.472Z,23.10
2018-09-02T14:16:14.613Z,23.10
2018-09-02T14:18:42.886Z,23.20
2018-09-02T14:21:11.148Z,23.20
2018-09-02T14:23:40.459Z,23.20
2018-09-02T14:26:08.809Z,23.20
2018-09-02T14:28:37.086Z,23.20
2018-09-02T14:31:05.599Z,23.20
2018-09-02T14:33:33.944Z,23.20
2018-09-02T14:36:02.188Z,23.20
2018-09-02T14:38:30.942Z,23.10
2018-09-02T14:40:59.323Z,23.10
2018-09-02T14:43:27.579Z,23.10
2018-09-02T14:45:55.993Z,23.10
2018-09-02T14:48:24.255Z,23.10
2018-09-02T14:50:52.737Z,23.10
2018-09-02T14:53:21.023Z,23.10
2018-09-02T14:55:49.302Z,23.10
2018-09-02T14:58:17.574Z,23.10
2018-09-02T15:00:46.568Z,23.10
2018-09-02T15:03:14.918Z,23.10
2018-09-02T15:05:44.158Z,23.10
2018-09-02T15:08:12.469Z,23.10
2018-09-02T15:10:40.721Z,23.10
2018-09-02T15:13:09.066Z,23.10
2018-09-02T15:15:37.350Z,23.10
2018-09-02T15:18:05.755Z,23.10
2018-09-02T15:20:34.122Z,23.10
2018-09-02T15:23:02.695Z,23.10
2018-09-02T15:25:31.155Z,23.10
2018-09-02T15:27:59.491Z,23.10
2018-09-02T15:30:28.119Z,23.10
2018-09-02T15:32:56.366Z,23.10
2018-09-02T15:35:24.643Z,23.10
2018-09-02T15:37:52.946Z,23.10
2018-09-02T15:40:21.368Z,23.10
2018-09-02T15:42:49.709Z,23.10
2018-09-02T15:45:19.235Z,23.10
2018-09-02T15:47:47.538Z,23.10
2018-09-02T15:50:15.910Z,23.10
2018-09-02T15:52:44.479Z,23.10
2018-09-02T15:55:12.830Z,23.10
2018-09-02T15:57:41.089Z,23.10
2018-09-02T16:00:10.113Z,23.10
2018-09-02T16:02:38.550Z,23.10
2018-09-02T16:05:06.832Z,23.10
2018-09-02T16:07:36.184Z,23.10
2018-09-02T16:10:04.550Z,23.10
2018-09-02T16:12:32.843Z,23.10
2018-09-02T16:15:01.531Z,23.10
2018-09-02T16:17:29.825Z,23.10
2018-09-02T16:19:58.104Z,23.10
2018-09-02T16:22:27.711Z,23.10
2018-09-02T16:24:56.139Z,23.10
2018-09-02T16:27:24.467Z,23.10
2018-09-02T16:29:53.032Z,23.10
2018-09-02T16:32:21.329Z,23.10
2018-09-02T16:34:49.621Z,23.20
2018-09-02T16:37:18.281Z,23.10
2018-09-02T16:39:46.627Z,23.10
2018-09-02T16:42:15.069Z,23.10
2018-09-02T16:44:43.915Z,23.10
2018-09-02T16:47:12.195Z,23.10
2018-09-02T16:49:40.447Z,23.10
2018-09-02T16:52:09.169Z,23.10
2018-09-02T16:54:37.492Z,23.10
2018-09-02T16:57:06.040Z,23.10
2018-09-02T16:59:34.801Z,23.10
2018-09-02T17:02:03.079Z,23.10
2018-09-02T17:04:35.062Z,23.10
2018-09-02T17:07:03.399Z,23.10
2018-09-02T17:09:32.016Z,23.10
2018-09-02T17:12:00.440Z,23.10
2018-09-02T17:14:30.116Z,23.10
2018-09-02T17:16:58.391Z,23.10
2018-09-02T17:19:29.329Z,23.10
2018-09-02T17:21:58.634Z,23.20
2018-09-02T17:24:26.987Z,23.10
2018-09-02T17:26:55.754Z,23.10
2018-09-02T17:29:24.487Z,23.10
2018-09-02T17:31:52.763Z,23.10
2018-09-02T17:34:21.362Z,23.10
2018-09-02T17:36:51.356Z,23.10
2018-09-02T17:39:19.696Z,23.10
2018-09-02T17:41:47.974Z,23.20
2018-09-02T17:44:17.224Z,23.10
2018-09-02T17:46:45.551Z,23.20
2018-09-02T17:49:13.846Z,23.20
2018-09-02T17:51:42.188Z,23.20
2018-09-02T17:54:10.476Z,23.20
2018-09-02T17:56:38.949Z,23.30
2018-09-02T17:59:07.576Z,23.30
2018-09-02T18:01:35.960Z,23.30
2018-09-02T18:04:04.262Z,23.30
2018-09-02T18:06:32.703Z,23.30
2018-09-02T18:09:01.051Z,23.30
2018-09-02T18:11:30.257Z,23.30
2018-09-02T18:13:58.932Z,23.30
2018-09-02T18:16:27.207Z,23.30
2018-09-02T18:18:56.161Z,23.20
2018-09-02T18:21:25.691Z,23.30
2018-09-02T18:23:53.966Z,23.30
2018-09-02T18:26:22.228Z,23.20
2018-09-02T18:28:51.044Z,23.20
2018-09-02T18:31:19.342Z,23.20
2018-09-02T18:33:47.590Z,23.30
2018-09-02T18:36:16.392Z,23.30
2018-09-02T18:38:44.779Z,23.30
2018-09-02T18:41:13.145Z,23.30
2018-09-02T18:43:42.326Z,23.30
2018-09-02T18:46:10.772Z,23.30
2018-09-02T18:48:39.008Z,23.30
2018-09-02T18:51:08.344Z,23.30
2018-09-02T18:53:36.912Z,23.30
2018-09-02T18:56:05.395Z,23.30
2018-09-02T18:58:33.706Z,23.40
2018-09-02T19:01:02.005Z,23.40
2018-09-02T19:03:30.712Z,23.40
2018-09-02T19:05:59.154Z,23.40
2018-09-02T19:08:27.822Z,23.30
2018-09-02T19:10:56.557Z,23.30
2018-09-02T19:13:25.805Z,23.30
2018-09-02T19:15:54.163Z,23.30
2018-09-02T19:18:22.586Z,23.30
2018-09-02T19:20:50.933Z,23.30
2018-09-02T19:23:19.374Z,23.30
2018-09-02T19:25:48.871Z,23.30
2018-09-02T19:28:17.150Z,23.30
2018-09-02T19:30:45.894Z,23.30
2018-09-02T19:33:14.239Z,23.30
2018-09-02T19:35:42.782Z,23.30
2018-09-02T19:38:11.072Z,23.30
2018-09-02T19:40:39.711Z,23.30
2018-09-02T19:43:08.003Z,23.30
2018-09-02T19:45:36.325Z,23.30
2018-09-02T19:48:04.802Z,23.30
2018-09-02T19:50:33.100Z,23.30
2018-09-02T19:53:01.463Z,23.30
2018-09-02T19:55:29.789Z,23.30
2018-09-02T19:57:58.197Z,23.30
2018-09-02T20:00:26.443Z,23.30
2018-09-02T20:02:56.607Z,23.30
2018-09-02T20:05:29.513Z,23.30
2018-09-02T20:07:58.891Z,23.30
2018-09-02T20:10:27.138Z,23.30
2018-09-02T20:12:55.399Z,23.30
2018-09-02T20:15:24.844Z,23.30
2018-09-02T20:17:53.150Z,23.30
2018-09-02T20:20:21.475Z,23.30
2018-09-02T20:22:50.698Z,23.30
2018-09-02T20:25:19.022Z,23.30
2018-09-02T20:27:47.290Z,23.30
2018-09-02T20:30:16.267Z,23.20
2018-09-02T20:32:44.523Z,23.30
2018-09-02T20:35:12.808Z,23.30
2018-09-02T20:37:41.603Z,23.20
2018-09-02T20:40:09.858Z,23.30
2018-09-02T20:42:38.137Z,23.30
2018-09-02T20:45:06.838Z,23.30
2018-09-02T20:47:35.098Z,23.30
2018-09-02T20:50:03.391Z,23.30
2018-09-02T20:52:31.690Z,23.20
2018-09-02T20:55:00.174Z,23.30
2018-09-02T20:57:28.518Z,23.30
2018-09-02T20:59:58.233Z,23.30
2018-09-02T21:02:26.675Z,23.30
2018-09-02T21:04:54.885Z,23.30
2018-09-02T21:07:23.571Z,23.30
2018-09-02T21:09:51.834Z,23.30
2018-09-02T21:12:20.119Z,23.30
2018-09-02T21:14:51.444Z,23.30
2018-09-02T21:17:20.636Z,23.30
2018-09-02T21:19:49.365Z,23.30
2018-09-02T21:22:18.257Z,23.30
2018-09-02T21:24:46.508Z,23.20
2018-09-02T21:27:14.830Z,23.30
2018-09-02T21:29:43.614Z,23.20
2018-09-02T21:32:11.936Z,23.30
2018-09-02T21:34:40.174Z,23.20
2018-09-02T21:37:09.773Z,23.20
2018-09-02T21:39:38.099Z,23.20
2018-09-02T21:42:06.400Z,23.20
2018-09-02T21:44:35.209Z,23.20
2018-09-02T21:47:03.499Z,23.20
2018-09-02T21:49:31.898Z,23.20
2018-09-02T21:52:00.546Z,23.20
2018-09-02T21:54:28.971Z,23.20
2018-09-02T21:56:58.384Z,23.20
2018-09-02T21:59:27.009Z,23.20
2018-09-02T22:01:55.355Z,23.20
2018-09-02T22:04:23.694Z,23.20
2018-09-02T22:06:52.257Z,23.20
2018-09-02T22:09:20.675Z,23.20
2018-09-02T22:11:49.015Z,23.10
2018-09-02T22:14:18.109Z,23.10
2018-09-02T22:16:46.439Z,23.10
2018-09-02T22:19:15.551Z,23.10
2018-09-02T22:21:43.925Z,23.10
2018-09-02T22:24:12.158Z,23.10
2018-09-02T22:26:40.481Z,23.10
2018-09-02T22:29:08.820Z,23.10
2018-09-02T22:31:37.071Z,23.10
2018-09-02T22:34:05.509Z,23.10
2018-09-02T22:36:34.218Z,23.10
2018-09-02T22:39:02.554Z,23.10
2018-09-02T22:41:30.818Z,23.10
2018-09-02T22:43:59.516Z,23.10
2018-09-02T22:46:27.821Z,23.10
2018-09-02T22:48:56.154Z,23.10
2018-09-02T22:51:24.823Z,23.10
2018-09-02T22:53:53.226Z,23.10
2018-09-02T22:56:21.570Z,23.10
2018-09-02T22:58:50.781Z,23.00
2018-09-02T23:01:19.005Z,23.10
2018-09-02T23:03:48.401Z,23.00
2018-09-02T23:06:16.757Z,23.00
2018-09-02T23:08:45.095Z,23.00
2018-09-02T23:11:13.389Z,23.00
2018-09-02T23:13:41.744Z,23.00
2018-09-02T23:16:09.982Z,23.00
2018-09-02T23:18:38.839Z,23.00
2018-09-02T23:21:08.279Z,23.00
2018-09-02T23:23:36.669Z,23.00
2018-09-02T23:26:05.535Z,23.00
2018-09-02T23:28:33.856Z,23.00
2018-09-02T23:31:02.091Z,23.00
2018-09-02T23:33:30.851Z,23.00
2018-09-02T23:35:59.181Z,23.00
2018-09-02T23:38:27.431Z,23.00
2018-09-02T23:40:56.298Z,23.00
2018-09-02T23:43:24.639Z,23.00
2018-09-02T23:45:52.902Z,23.00
2018-09-02T23:48:21.210Z,23.00
2018-09-02T23:50:49.625Z,23.00
2018-09-02T23:53:17.867Z,22.90
2018-09-02T23:55:46.580Z,22.90
2018-09-02T23:58:14.903Z,22.90
